createdAt,value
2023-04-01T00:02:05.548Z,4.60
2023-04-01T00:04:32.128Z,4.18
2023-04-01T00:25:49.123Z,4.00
2023-04-01T00:28:20.984Z,3.70
2023-04-01T00:30:48.493Z,3.63
2023-04-01T00:33:15.978Z,3.65
2023-04-01T00:35:42.923Z,3.30
2023-04-01T00:38:09.444Z,3.75
2023-04-01T00:40:39.949Z,3.03
2023-04-01T00:43:20.374Z,3.35
2023-04-01T01:07:27.900Z,3.00
2023-04-01T01:10:12.800Z,3.00
2023-04-01T01:12:46.715Z,2.72
2023-04-01T01:15:22.886Z,3.20
2023-04-01T01:18:03.651Z,2.83
2023-04-01T01:20:33.105Z,3.33
2023-04-01T01:23:14.854Z,2.88
2023-04-01T02:00:56.498Z,3.75
2023-04-01T02:27:47.281Z,4.07
2023-04-01T02:30:20.738Z,3.72
2023-04-01T02:32:53.811Z,4.18
2023-04-01T02:35:21.799Z,3.58
2023-04-01T02:37:53.318Z,3.83
2023-04-01T02:45:39.725Z,3.60
2023-04-01T02:48:13.891Z,3.75
2023-04-01T02:50:41.385Z,4.13
2023-04-01T02:53:08.120Z,3.83
2023-04-01T02:55:36.415Z,4.05
2023-04-01T02:58:06.749Z,4.57
2023-04-01T03:00:33.762Z,4.05
2023-04-01T03:03:01.792Z,4.28
2023-04-01T03:05:28.542Z,3.58
2023-04-01T03:08:14.690Z,3.53
2023-04-01T03:21:37.472Z,2.83
2023-04-01T03:24:10.152Z,2.50
2023-04-01T03:26:39.377Z,2.17
2023-04-01T03:29:10.932Z,2.72
2023-04-01T03:31:42.390Z,2.72
2023-04-01T03:34:09.882Z,2.30
2023-04-01T03:39:31.600Z,2.67
2023-04-01T03:42:12.885Z,3.13
2023-04-01T03:44:47.727Z,2.63
2023-04-01T03:48:19.140Z,2.72
2023-04-01T03:50:58.618Z,2.15
2023-04-01T03:53:26.000Z,2.63
2023-04-01T03:55:55.468Z,2.35
2023-04-01T03:58:31.487Z,2.30
2023-04-01T04:01:00.179Z,2.60
2023-04-01T04:03:27.366Z,2.53
2023-04-01T04:05:57.550Z,2.47
2023-04-01T04:11:06.494Z,2.80
2023-04-01T04:13:34.657Z,2.90
2023-04-01T04:16:04.753Z,3.05
2023-04-01T04:18:46.035Z,2.80
2023-04-01T04:22:21.857Z,2.95
2023-04-01T04:24:59.522Z,3.75
2023-04-01T04:30:35.164Z,3.42
2023-04-01T04:35:57.842Z,3.28
2023-04-01T04:38:28.487Z,2.63
2023-04-01T04:40:57.703Z,3.60
2023-04-01T04:43:24.375Z,3.63
2023-04-01T04:45:58.369Z,4.03
2023-04-01T04:48:26.900Z,3.60
2023-04-01T04:50:53.483Z,3.88
2023-04-01T04:53:22.756Z,3.78
2023-04-01T04:56:02.785Z,3.85
2023-04-01T04:58:29.608Z,3.80
2023-04-01T05:00:56.481Z,3.83
2023-04-01T05:03:25.449Z,4.38
2023-04-01T05:06:12.243Z,3.85
2023-04-01T05:08:40.598Z,3.88
2023-04-01T05:11:17.248Z,4.15
2023-04-01T05:13:58.696Z,4.07
2023-04-01T05:16:28.401Z,4.40
2023-04-01T05:21:40.518Z,3.75
2023-04-01T05:29:30.916Z,3.53
2023-04-01T05:35:07.092Z,3.42
2023-04-01T05:37:51.701Z,3.70
2023-04-01T05:40:43.101Z,2.92
2023-04-01T05:43:39.643Z,3.38
2023-04-01T05:46:06.663Z,3.55
2023-04-01T05:48:38.793Z,3.30
2023-04-01T05:51:06.535Z,3.65
2023-04-01T05:53:33.668Z,3.45
2023-04-01T05:56:04.331Z,3.67
2023-04-01T05:58:36.522Z,4.18
2023-04-01T06:01:11.315Z,3.90
2023-04-01T06:03:41.189Z,4.28
2023-04-01T06:06:16.777Z,4.43
2023-04-01T06:08:44.922Z,4.65
2023-04-01T06:11:22.777Z,3.70
2023-04-01T06:14:04.854Z,4.40
2023-04-01T06:16:39.212Z,4.97
2023-04-01T06:19:24.706Z,4.80
2023-04-01T06:22:41.055Z,5.10
2023-04-01T06:25:28.024Z,4.65
2023-04-01T06:46:51.146Z,4.97
2023-04-01T06:50:06.095Z,4.68
2023-04-01T06:52:45.428Z,4.90
2023-04-01T06:55:24.058Z,4.93
2023-04-01T06:57:55.917Z,5.57
2023-04-01T07:00:32.079Z,4.15
2023-04-01T07:03:13.643Z,5.07
2023-04-01T07:05:51.451Z,4.35
2023-04-01T07:08:39.686Z,4.45
2023-04-01T07:11:10.383Z,5.07
2023-04-01T07:13:39.867Z,4.28
2023-04-01T07:16:38.963Z,4.30
2023-04-01T07:19:44.107Z,4.43
2023-04-01T07:22:39.341Z,3.80
2023-04-01T07:25:18.862Z,4.05
2023-04-01T07:28:04.800Z,4.25
2023-04-01T07:30:53.745Z,4.28
2023-04-01T07:34:21.914Z,3.88
2023-04-01T07:37:21.923Z,3.42
2023-04-01T07:40:02.912Z,3.47
2023-04-01T07:42:44.361Z,4.22
2023-04-01T07:45:58.070Z,4.03
2023-04-01T07:48:52.561Z,4.00
2023-04-01T07:51:40.134Z,3.97
2023-04-01T07:54:33.254Z,4.20
2023-04-01T07:57:25.913Z,4.40
2023-04-01T08:00:17.890Z,4.65
2023-04-01T08:02:54.834Z,4.55
2023-04-01T08:05:37.487Z,4.80
2023-04-01T08:08:38.056Z,4.55
2023-04-01T08:11:29.656Z,4.45
2023-04-01T08:22:46.313Z,4.30
2023-04-01T08:25:32.256Z,4.50
2023-04-01T08:28:53.293Z,4.70
2023-04-01T08:39:45.277Z,4.53
2023-04-01T08:42:39.755Z,4.07
2023-04-01T08:45:32.800Z,4.75
2023-04-01T08:48:43.662Z,4.25
2023-04-01T08:51:32.514Z,3.60
2023-04-01T08:54:33.159Z,4.25
2023-04-01T08:57:00.065Z,3.95
2023-04-01T09:00:01.617Z,3.97
2023-04-01T09:02:43.332Z,3.28
2023-04-01T09:05:23.184Z,3.80
2023-04-01T09:08:11.628Z,4.20
2023-04-01T09:11:03.308Z,3.88
2023-04-01T09:17:46.329Z,3.63
2023-04-01T09:20:38.247Z,3.55
2023-04-01T09:23:39.005Z,3.13
2023-04-01T09:26:43.542Z,3.20
2023-04-01T09:29:53.237Z,2.90
2023-04-01T09:33:07.808Z,3.10
2023-04-01T09:43:06.537Z,2.90
2023-04-01T09:46:00.178Z,2.25
2023-04-01T09:49:22.481Z,2.40
2023-04-01T09:52:53.272Z,3.28
2023-04-01T09:55:48.409Z,2.90
2023-04-01T09:58:53.469Z,2.70
2023-04-01T10:01:50.977Z,2.50
2023-04-01T10:04:48.483Z,2.30
2023-04-01T10:07:14.919Z,2.20
2023-04-01T10:10:35.238Z,2.17
2023-04-01T10:13:29.991Z,1.77
2023-04-01T10:16:58.913Z,1.80
2023-04-01T10:19:46.649Z,2.13
2023-04-01T10:22:39.400Z,2.45
2023-04-01T10:25:24.079Z,2.22
2023-04-01T10:28:38.247Z,2.25
2023-04-01T10:31:23.206Z,2.08
2023-04-01T10:34:17.194Z,2.10
2023-04-01T10:37:18.250Z,1.80
2023-04-01T10:39:59.624Z,1.90
2023-04-01T10:42:50.281Z,1.85
2023-04-01T10:45:39.809Z,1.60
2023-04-01T10:48:30.398Z,1.50
2023-04-01T10:55:20.793Z,1.90
2023-04-01T10:58:04.477Z,1.80
2023-04-01T11:00:39.940Z,1.90
2023-04-01T11:03:34.528Z,1.60
2023-04-01T11:06:20.516Z,1.80
2023-04-01T11:09:14.835Z,2.88
2023-04-01T11:11:53.120Z,1.60
2023-04-01T11:14:53.485Z,1.67
2023-04-01T11:17:38.397Z,1.70
2023-04-01T11:23:09.769Z,1.48
2023-04-01T11:28:31.560Z,2.00
2023-04-01T11:34:33.581Z,1.98
2023-04-01T11:37:28.465Z,1.70
2023-04-01T11:40:13.407Z,2.42
2023-04-01T11:42:57.319Z,1.70
2023-04-01T11:45:40.817Z,1.70
2023-04-01T11:48:47.633Z,1.70
2023-04-01T11:51:26.147Z,1.60
2023-04-01T11:54:20.443Z,1.70
2023-04-01T11:57:03.229Z,2.00
2023-04-01T11:59:48.578Z,2.00
2023-04-01T12:02:48.392Z,1.67
2023-04-01T15:21:24.047Z,2.13
2023-04-01T15:23:58.431Z,1.77
2023-04-01T15:26:39.929Z,1.80
2023-04-01T15:29:34.239Z,1.98
2023-04-01T15:32:09.293Z,1.73
2023-04-01T15:35:11.081Z,1.40
2023-04-01T15:37:45.806Z,1.60
2023-04-01T15:40:34.180Z,1.40
2023-04-01T15:43:22.925Z,2.10
2023-04-01T15:46:32.853Z,1.60
2023-04-01T15:54:27.961Z,1.83
2023-04-01T15:57:21.389Z,1.60
2023-04-01T15:59:56.944Z,1.70
2023-04-01T16:02:45.128Z,1.38
2023-04-01T16:05:29.699Z,1.50
2023-04-01T16:08:41.725Z,1.70
2023-04-01T16:11:17.263Z,1.80
2023-04-01T16:13:53.431Z,1.20
2023-04-01T16:16:25.552Z,1.65
2023-04-01T16:19:35.421Z,1.38
2023-04-01T16:22:29.764Z,1.40
2023-04-01T16:25:18.504Z,1.52
2023-04-01T16:28:12.895Z,1.40
2023-04-01T16:30:43.784Z,1.23
2023-04-01T16:33:36.233Z,1.30
2023-04-01T16:36:15.232Z,1.40
2023-04-01T16:41:42.200Z,1.45
2023-04-01T16:44:22.836Z,1.60
2023-04-01T16:47:08.611Z,1.90
2023-04-01T16:50:01.166Z,1.77
2023-04-01T16:52:52.075Z,1.50
2023-04-01T16:55:21.734Z,1.52
2023-04-01T16:58:00.513Z,1.42
2023-04-01T17:00:28.442Z,1.60
2023-04-01T17:03:21.956Z,2.58
2023-04-01T17:08:41.492Z,1.70
2023-04-01T17:14:23.155Z,1.83
2023-04-01T17:17:18.954Z,1.33
2023-04-01T17:20:03.238Z,1.00
2023-04-01T17:25:19.018Z,1.33
2023-04-01T17:27:53.056Z,1.38
2023-04-01T17:33:26.179Z,1.50
2023-04-01T17:38:28.946Z,1.30
2023-04-01T17:41:09.891Z,1.17
2023-04-01T17:44:05.554Z,1.30
2023-04-01T17:46:57.976Z,1.30
2023-04-01T17:49:48.859Z,1.70
2023-04-01T17:52:27.720Z,1.48
2023-04-01T17:54:59.777Z,1.40
2023-04-01T17:57:54.608Z,1.45
2023-04-01T18:01:00.000Z,1.50
2023-04-01T18:04:01.256Z,1.50
2023-04-01T18:07:09.203Z,1.58
2023-04-01T18:09:39.646Z,1.48
2023-04-01T18:12:25.226Z,1.42
2023-04-01T18:15:17.504Z,1.60
2023-04-01T18:17:49.830Z,1.60
2023-04-01T18:20:32.033Z,1.80
2023-04-01T18:23:17.564Z,1.58
2023-04-01T18:25:54.650Z,1.38
2023-04-01T18:28:41.221Z,1.63
2023-04-01T18:31:17.526Z,1.58
2023-04-01T18:34:15.810Z,1.60
2023-04-01T18:36:50.380Z,1.70
2023-04-01T18:39:47.339Z,1.75
2023-04-01T18:42:34.271Z,2.20
2023-04-01T18:45:34.889Z,2.05
2023-04-01T18:48:31.979Z,2.33
2023-04-01T18:51:04.376Z,2.25
2023-04-01T18:53:49.900Z,2.15
2023-04-01T18:56:29.908Z,1.93
2023-04-01T18:59:07.062Z,1.80
2023-04-01T19:02:15.213Z,1.88
2023-04-01T19:04:54.750Z,1.95
2023-04-01T19:07:41.368Z,2.17
2023-04-01T19:10:21.139Z,2.10
2023-04-01T19:13:03.149Z,1.98
2023-04-01T19:15:48.937Z,1.75
2023-04-01T19:18:36.998Z,1.80
2023-04-01T19:21:27.045Z,1.90
2023-04-01T19:24:05.000Z,1.90
2023-04-01T19:26:40.875Z,1.92
2023-04-01T19:32:20.185Z,2.33
2023-04-01T19:34:51.882Z,2.22
2023-04-01T19:37:26.421Z,2.17
2023-04-01T19:40:08.245Z,2.10
2023-04-01T19:42:58.517Z,2.20
2023-04-01T19:45:31.658Z,2.03
2023-04-01T19:48:13.302Z,2.00
2023-04-01T19:50:44.738Z,2.35
2023-04-01T19:53:26.361Z,2.03
2023-04-01T19:56:17.808Z,2.35
2023-04-01T19:58:56.437Z,2.17
2023-04-01T20:02:04.253Z,2.60
2023-04-01T20:04:42.730Z,2.30
2023-04-01T20:07:31.170Z,2.30
2023-04-01T20:10:21.703Z,2.30
2023-04-01T20:13:33.409Z,2.20
2023-04-01T20:16:05.016Z,1.98
2023-04-01T20:18:37.039Z,2.45
2023-04-01T20:21:16.990Z,2.45
2023-04-01T20:23:53.749Z,2.05
2023-04-01T20:26:33.010Z,2.35
2023-04-01T20:29:27.779Z,2.58
2023-04-01T20:32:14.706Z,2.10
2023-04-01T20:35:01.689Z,2.30
2023-04-01T20:37:53.351Z,2.08
2023-04-01T20:40:39.277Z,2.13
2023-04-01T20:43:11.101Z,1.95
2023-04-01T20:46:09.796Z,1.98
2023-04-01T20:48:38.945Z,1.65
2023-04-01T20:51:16.266Z,1.95
2023-04-01T20:53:56.774Z,1.63
2023-04-01T20:56:27.081Z,1.77
2023-04-01T20:59:14.531Z,2.00
2023-04-01T21:02:09.721Z,1.50
2023-04-01T21:05:15.600Z,1.60
2023-04-01T21:07:50.840Z,2.00
2023-04-01T21:10:38.139Z,2.45
2023-04-01T21:13:24.388Z,1.85
2023-04-01T21:15:50.901Z,2.22
2023-04-01T21:18:30.899Z,2.08
2023-04-01T21:21:18.950Z,1.90
2023-04-01T21:24:06.636Z,2.13
2023-04-01T21:26:53.534Z,2.10
2023-04-01T21:29:28.592Z,1.73
2023-04-01T21:32:09.456Z,1.87
2023-04-01T21:34:43.001Z,1.95
2023-04-01T21:37:40.343Z,1.98
2023-04-01T21:40:50.220Z,2.13
2023-04-01T21:43:37.341Z,1.58
2023-04-01T21:46:28.743Z,1.90
2023-04-01T21:49:08.684Z,1.75
2023-04-01T21:51:44.952Z,1.85
2023-04-01T21:54:45.570Z,2.10
2023-04-01T21:57:49.129Z,1.88
2023-04-01T22:00:46.563Z,2.10
2023-04-01T22:03:38.034Z,2.17
2023-04-01T22:06:22.851Z,2.75
2023-04-01T22:09:36.474Z,2.33
2023-04-01T22:12:15.841Z,2.22
2023-04-01T22:14:57.624Z,2.30
2023-04-01T22:17:27.145Z,2.55
2023-04-01T22:20:22.308Z,2.10
2023-04-01T22:23:32.159Z,2.67
2023-04-01T22:26:13.977Z,2.88
2023-04-01T22:28:59.215Z,2.10
2023-04-01T22:31:37.634Z,2.30
2023-04-01T22:34:14.750Z,2.67
2023-04-01T22:37:20.720Z,2.55
2023-04-01T22:40:02.298Z,2.30
2023-04-01T22:45:13.604Z,2.67
2023-04-01T22:48:02.847Z,2.22
2023-04-01T22:53:13.338Z,2.20
2023-04-01T22:55:52.700Z,2.33
2023-04-01T22:58:31.281Z,2.42
2023-04-01T23:01:07.388Z,2.30
2023-04-01T23:03:41.197Z,2.75
2023-04-01T23:06:18.530Z,1.92
2023-04-01T23:09:12.468Z,2.83
2023-04-01T23:29:26.980Z,2.80
2023-04-01T23:32:01.200Z,2.63
2023-04-01T23:34:36.466Z,3.20
2023-04-01T23:37:16.991Z,2.90
2023-04-01T23:39:46.486Z,3.30
2023-04-01T23:42:33.353Z,3.30
2023-04-01T23:45:03.927Z,2.63
2023-04-01T23:47:33.787Z,2.75
2023-04-01T23:50:14.842Z,3.33
2023-04-01T23:52:44.706Z,3.67
2023-04-01T23:55:26.280Z,3.50
2023-04-01T23:58:16.263Z,3.50
